createdAt,value
2023-05-05T00:01:03.113Z,25.53
2023-05-05T00:03:03.142Z,25.52
2023-05-05T00:05:03.144Z,25.52
2023-05-05T00:07:03.031Z,25.61
2023-05-05T00:09:03.121Z,25.60
2023-05-05T00:11:03.133Z,25.52
2023-05-05T00:13:03.099Z,25.52
2023-05-05T00:15:03.029Z,25.56
2023-05-05T00:17:03.082Z,25.63
2023-05-05T00:19:03.074Z,25.53
2023-05-05T00:21:03.117Z,25.54
2023-05-05T00:23:03.132Z,25.53
2023-05-05T00:25:03.137Z,25.61
2023-05-05T00:27:03.071Z,25.52
2023-05-05T00:29:03.117Z,25.52
2023-05-05T00:31:03.228Z,25.58
2023-05-05T00:33:03.235Z,25.54
2023-05-05T00:35:03.144Z,25.55
2023-05-05T00:37:03.095Z,25.56
2023-05-05T00:39:03.134Z,25.58
2023-05-05T00:41:03.136Z,25.52
2023-05-05T00:43:03.147Z,25.52
2023-05-05T00:45:03.138Z,25.52
2023-05-05T00:47:03.168Z,25.52
2023-05-05T00:49:03.190Z,25.58
2023-05-05T00:51:03.159Z,25.52
2023-05-05T00:53:03.040Z,25.64
2023-05-05T00:55:03.129Z,25.54
2023-05-05T00:57:03.155Z,25.54
2023-05-05T00:59:03.147Z,25.52
2023-05-05T01:01:03.188Z,25.60
2023-05-05T01:03:03.342Z,25.64
2023-05-05T01:05:03.196Z,25.53
2023-05-05T01:07:03.204Z,25.52
2023-05-05T01:09:03.119Z,25.54
2023-05-05T01:11:03.160Z,25.52
2023-05-05T01:13:03.242Z,25.52
2023-05-05T01:15:03.153Z,25.52
2023-05-05T01:17:03.136Z,25.52
2023-05-05T01:19:03.177Z,25.57
2023-05-05T01:21:03.211Z,25.55
2023-05-05T01:23:03.106Z,25.53
2023-05-05T01:25:03.145Z,25.52
2023-05-05T01:27:03.166Z,25.58
2023-05-05T01:29:03.200Z,25.65
2023-05-05T01:31:03.202Z,25.55
2023-05-05T01:33:03.289Z,25.52
2023-05-05T01:35:03.232Z,25.56
2023-05-05T01:37:03.195Z,25.52
2023-05-05T01:39:03.228Z,25.54
2023-05-05T01:41:03.185Z,25.57
2023-05-05T01:43:03.221Z,25.52
2023-05-05T01:45:03.123Z,25.61
2023-05-05T01:47:03.214Z,25.51
2023-05-05T01:49:03.178Z,25.60
2023-05-05T01:51:03.239Z,25.52
2023-05-05T01:53:03.194Z,25.56
2023-05-05T01:55:03.096Z,25.54
2023-05-05T01:57:03.253Z,25.64
2023-05-05T01:59:03.247Z,25.52
2023-05-05T02:01:03.283Z,23.22
2023-05-05T02:03:03.275Z,23.23
2023-05-05T02:05:03.255Z,23.26
2023-05-05T02:07:03.266Z,23.26
2023-05-05T02:09:03.228Z,23.27
2023-05-05T02:11:03.212Z,23.45
2023-05-05T02:13:03.344Z,23.68
2023-05-05T02:15:03.184Z,23.77
2023-05-05T02:17:03.302Z,23.79
2023-05-05T02:19:03.257Z,23.81
2023-05-05T02:21:03.266Z,23.79
2023-05-05T02:23:03.307Z,23.75
2023-05-05T02:25:03.310Z,23.75
2023-05-05T02:27:03.321Z,23.66
2023-05-05T02:29:03.285Z,23.76
2023-05-05T02:31:03.369Z,23.73
2023-05-05T02:33:03.250Z,23.72
2023-05-05T02:35:03.149Z,23.75
2023-05-05T02:37:03.304Z,23.70
2023-05-05T02:39:03.348Z,23.65
2023-05-05T02:41:03.334Z,23.69
2023-05-05T02:43:03.144Z,23.70
2023-05-05T02:45:03.327Z,23.06
2023-05-05T02:47:03.298Z,22.95
2023-05-05T02:49:03.196Z,23.05
2023-05-05T02:51:03.303Z,23.06
2023-05-05T02:53:03.261Z,23.05
2023-05-05T02:55:03.246Z,23.37
2023-05-05T02:57:03.216Z,23.58
2023-05-05T02:59:03.172Z,23.58
2023-05-05T03:01:03.258Z,23.58
2023-05-05T03:03:03.372Z,23.62
2023-05-05T03:05:03.345Z,23.61
2023-05-05T03:07:03.265Z,23.55
2023-05-05T03:09:03.371Z,23.56
2023-05-05T03:11:03.200Z,23.54
2023-05-05T03:13:03.305Z,23.61
2023-05-05T03:15:03.281Z,23.62
2023-05-05T03:17:03.381Z,23.57
2023-05-05T03:19:03.227Z,23.57
2023-05-05T03:21:03.340Z,23.56
2023-05-05T03:23:03.256Z,23.51
2023-05-05T03:25:03.384Z,23.53
2023-05-05T03:27:03.334Z,23.12
2023-05-05T03:29:03.104Z,23.06
2023-05-05T03:31:03.362Z,23.08
2023-05-05T03:33:03.251Z,23.09
2023-05-05T03:35:03.226Z,23.08
2023-05-05T03:37:03.291Z,23.12
2023-05-05T03:39:03.305Z,23.25
2023-05-05T03:41:03.336Z,23.20
2023-05-05T03:43:03.317Z,23.20
2023-05-05T03:45:03.293Z,23.24
2023-05-05T03:47:03.260Z,23.29
2023-05-05T03:49:03.295Z,23.39
2023-05-05T03:51:03.333Z,23.40
2023-05-05T03:53:03.300Z,23.36
2023-05-05T03:55:03.350Z,23.37
2023-05-05T03:57:03.344Z,23.37
2023-05-05T03:59:03.344Z,23.48
2023-05-05T04:01:03.232Z,23.17
2023-05-05T04:03:03.572Z,23.26
2023-05-05T04:05:03.302Z,23.17
2023-05-05T04:07:03.298Z,22.95
2023-05-05T04:09:03.300Z,22.82
2023-05-05T04:11:03.334Z,22.88
2023-05-05T04:13:03.394Z,22.91
2023-05-05T04:15:03.267Z,22.84
2023-05-05T04:17:03.360Z,23.11
2023-05-05T04:19:03.373Z,23.23
2023-05-05T04:21:03.402Z,23.10
2023-05-05T04:23:03.307Z,23.13
2023-05-05T04:25:03.413Z,23.12
2023-05-05T04:27:03.404Z,23.00
2023-05-05T04:29:03.309Z,22.96
2023-05-05T04:31:03.497Z,23.04
2023-05-05T04:33:03.534Z,23.08
2023-05-05T04:35:03.380Z,23.10
2023-05-05T04:37:03.191Z,23.26
2023-05-05T04:39:03.441Z,23.31
2023-05-05T04:41:03.409Z,23.38
2023-05-05T04:43:03.457Z,23.37
2023-05-05T04:45:03.372Z,23.39
2023-05-05T04:47:03.395Z,23.39
2023-05-05T04:49:03.410Z,23.42
2023-05-05T04:51:03.393Z,22.88
2023-05-05T04:53:03.470Z,22.96
2023-05-05T04:55:03.315Z,22.90
2023-05-05T04:57:03.280Z,22.88
2023-05-05T04:59:03.360Z,22.91
2023-05-05T05:01:03.292Z,23.33
2023-05-05T05:03:03.504Z,23.39
2023-05-05T05:05:03.444Z,23.33
2023-05-05T05:07:03.388Z,23.34
2023-05-05T05:09:03.329Z,23.34
2023-05-05T05:11:03.434Z,23.39
2023-05-05T05:13:03.392Z,23.42
2023-05-05T05:15:03.384Z,23.51
2023-05-05T05:17:03.279Z,23.56
2023-05-05T05:19:03.440Z,23.21
2023-05-05T05:21:03.415Z,23.25
2023-05-05T05:23:03.448Z,23.12
2023-05-05T05:25:03.464Z,23.11
2023-05-05T05:27:03.428Z,23.11
2023-05-05T05:29:03.370Z,23.37
2023-05-05T05:31:03.434Z,23.55
2023-05-05T05:33:03.568Z,23.08
2023-05-05T05:35:03.429Z,22.82
2023-05-05T05:37:03.518Z,22.84
2023-05-05T05:39:03.446Z,22.87
2023-05-05T05:41:03.506Z,22.82
2023-05-05T05:43:03.409Z,22.84
2023-05-05T05:45:03.391Z,23.34
2023-05-05T05:47:03.475Z,23.39
2023-05-05T05:49:03.445Z,23.39
2023-05-05T05:51:03.429Z,23.43
2023-05-05T05:53:03.492Z,23.37
2023-05-05T05:55:03.474Z,23.47
2023-05-05T05:57:03.408Z,23.52
2023-05-05T05:59:03.469Z,23.65
2023-05-05T06:01:03.453Z,23.70
2023-05-05T06:03:03.521Z,23.69
2023-05-05T06:05:03.437Z,23.75
2023-05-05T06:07:03.360Z,23.75
2023-05-05T06:09:03.437Z,23.53
2023-05-05T06:11:03.403Z,23.24
2023-05-05T06:13:03.478Z,23.18
2023-05-05T06:15:03.418Z,23.04
2023-05-05T06:17:03.542Z,22.68
2023-05-05T06:19:03.508Z,22.79
2023-05-05T06:21:03.474Z,22.75
2023-05-05T06:23:03.468Z,22.82
2023-05-05T06:25:03.472Z,22.84
2023-05-05T06:27:03.419Z,23.25
2023-05-05T06:29:03.458Z,23.49
2023-05-05T06:31:03.531Z,23.70
2023-05-05T06:33:03.531Z,23.84
2023-05-05T06:35:03.431Z,24.08
2023-05-05T06:37:03.397Z,24.30
2023-05-05T06:39:03.607Z,24.41
2023-05-05T06:41:03.578Z,24.52
2023-05-05T06:43:03.534Z,24.69
2023-05-05T06:45:03.570Z,24.69
2023-05-05T06:47:03.591Z,24.75
2023-05-05T06:49:03.497Z,24.85
2023-05-05T06:51:04.303Z,24.78
2023-05-05T06:53:03.367Z,24.71
2023-05-05T06:55:03.522Z,24.69
2023-05-05T06:57:03.563Z,24.66
2023-05-05T06:59:04.656Z,24.52
2023-05-05T07:01:03.410Z,23.61
2023-05-05T07:03:03.549Z,23.41
2023-05-05T07:05:03.435Z,23.29
2023-05-05T07:07:03.561Z,23.25
2023-05-05T07:09:03.479Z,23.34
2023-05-05T07:11:03.513Z,24.16
2023-05-05T07:13:03.400Z,24.58
2023-05-05T07:15:15.499Z,24.75
2023-05-05T07:17:03.559Z,24.69
2023-05-05T07:19:03.601Z,24.66
2023-05-05T07:21:03.571Z,25.00
2023-05-05T07:23:03.535Z,24.95
2023-05-05T07:25:03.635Z,25.17
2023-05-05T07:27:03.611Z,25.20
2023-05-05T07:29:03.396Z,24.95
2023-05-05T07:31:03.595Z,24.92
2023-05-05T07:33:03.679Z,24.82
2023-05-05T07:35:03.578Z,24.95
2023-05-05T07:37:03.557Z,25.19
2023-05-05T07:39:03.568Z,25.26
2023-05-05T07:41:03.625Z,25.42
2023-05-05T07:43:03.620Z,24.81
2023-05-05T07:45:03.612Z,24.37
2023-05-05T07:47:03.611Z,24.57
2023-05-05T07:49:03.671Z,24.55
2023-05-05T07:51:03.640Z,24.68
2023-05-05T07:53:13.600Z,24.95
2023-05-05T07:55:03.584Z,24.95
2023-05-05T07:57:03.640Z,24.79
2023-05-05T07:59:03.603Z,24.51
2023-05-05T08:01:03.623Z,24.52
2023-05-05T08:03:03.696Z,24.86
2023-05-05T08:05:03.619Z,25.61
2023-05-05T08:07:03.671Z,25.53
2023-05-05T08:09:03.622Z,25.09
2023-05-05T08:11:03.536Z,26.07
2023-05-05T08:13:03.654Z,26.23
2023-05-05T08:15:03.654Z,26.18
2023-05-05T08:17:03.611Z,26.10
2023-05-05T08:19:05.073Z,25.50
2023-05-05T08:21:03.623Z,25.47
2023-05-05T08:23:03.512Z,26.48
2023-05-05T08:25:03.624Z,26.17
2023-05-05T08:27:03.575Z,25.11
2023-05-05T08:29:03.626Z,24.83
2023-05-05T08:31:03.673Z,24.56
2023-05-05T08:33:03.676Z,24.36
2023-05-05T08:35:03.672Z,24.38
2023-05-05T08:37:03.619Z,26.77
2023-05-05T08:39:03.505Z,25.08
2023-05-05T08:41:03.681Z,25.75
2023-05-05T08:43:03.630Z,26.08
2023-05-05T08:45:03.716Z,25.19
2023-05-05T08:47:03.789Z,25.06
2023-05-05T08:49:03.692Z,24.98
2023-05-05T08:51:05.388Z,25.09
2023-05-05T08:53:03.782Z,25.15
2023-05-05T08:55:03.575Z,25.41
2023-05-05T08:57:03.656Z,25.54
2023-05-05T08:59:03.686Z,25.63
2023-05-05T09:01:03.777Z,25.05
2023-05-05T09:03:03.808Z,25.95
2023-05-05T09:05:03.690Z,25.00
2023-05-05T09:07:03.653Z,24.94
2023-05-05T09:09:03.685Z,25.52
2023-05-05T09:11:03.694Z,25.08
2023-05-05T09:13:03.680Z,26.23
2023-05-05T09:15:03.692Z,25.15
2023-05-05T09:17:03.664Z,24.53
2023-05-05T09:19:03.612Z,24.52
2023-05-05T09:21:03.680Z,25.08
2023-05-05T09:23:03.690Z,24.94
2023-05-05T09:25:03.651Z,26.82
2023-05-05T09:27:03.634Z,24.91
2023-05-05T09:29:03.735Z,24.92
2023-05-05T09:31:03.765Z,26.80
2023-05-05T09:33:03.770Z,24.93
2023-05-05T09:35:03.696Z,24.95
2023-05-05T09:37:03.652Z,26.51
2023-05-05T09:39:03.715Z,25.65
2023-05-05T09:41:03.707Z,25.09
2023-05-05T09:43:03.775Z,25.44
2023-05-05T09:45:03.717Z,26.78
2023-05-05T09:47:07.375Z,24.98
2023-05-05T09:49:03.615Z,24.95
2023-05-05T09:51:03.691Z,24.96
2023-05-05T09:53:03.734Z,25.12
2023-05-05T09:55:03.738Z,25.82
2023-05-05T09:57:03.578Z,25.75
2023-05-05T09:59:03.665Z,25.52
2023-05-05T10:01:03.774Z,25.09
2023-05-05T10:03:03.805Z,24.67
2023-05-05T10:05:03.717Z,24.65
2023-05-05T10:07:03.716Z,24.59
2023-05-05T10:09:03.763Z,24.62
2023-05-05T10:11:03.710Z,24.62
2023-05-05T10:13:03.763Z,24.66
2023-05-05T10:15:03.717Z,24.68
2023-05-05T10:17:03.690Z,25.58
2023-05-05T10:19:03.671Z,25.91
2023-05-05T10:21:03.670Z,24.71
2023-05-05T10:23:03.753Z,24.62
2023-05-05T10:25:03.672Z,24.65
2023-05-05T10:27:03.762Z,24.66
2023-05-05T10:29:03.751Z,25.35
2023-05-05T10:31:12.793Z,25.21
2023-05-05T10:33:18.529Z,25.24
2023-05-05T10:35:03.772Z,24.43
2023-05-05T10:37:03.717Z,23.66
2023-05-05T10:39:03.820Z,23.70
2023-05-05T10:41:03.738Z,23.65
2023-05-05T10:43:03.705Z,23.58
2023-05-05T10:45:03.800Z,23.57
2023-05-05T10:47:03.799Z,24.64
2023-05-05T10:49:03.743Z,25.15
2023-05-05T10:51:03.776Z,25.57
2023-05-05T10:53:03.815Z,25.29
2023-05-05T10:55:03.801Z,25.61
2023-05-05T10:57:03.753Z,24.68
2023-05-05T10:59:03.793Z,24.59
2023-05-05T11:01:03.908Z,25.93
2023-05-05T11:03:03.761Z,24.76
2023-05-05T11:05:03.798Z,24.67
2023-05-05T11:07:03.740Z,24.61
2023-05-05T11:09:03.789Z,24.61
2023-05-05T11:11:03.797Z,24.62
2023-05-05T11:13:03.789Z,24.57
2023-05-05T11:15:03.737Z,24.73
2023-05-05T11:17:03.834Z,24.95
2023-05-05T11:19:03.872Z,23.84
2023-05-05T11:21:03.749Z,23.53
2023-05-05T11:23:03.671Z,23.17
2023-05-05T11:25:03.791Z,23.53
2023-05-05T11:27:03.845Z,23.57
2023-05-05T11:29:03.788Z,24.35
2023-05-05T11:31:03.860Z,25.11
2023-05-05T11:33:03.831Z,25.61
2023-05-05T11:35:03.807Z,25.99
2023-05-05T11:37:03.800Z,24.70
2023-05-05T11:39:03.866Z,24.64
2023-05-05T11:41:03.777Z,24.53
2023-05-05T11:43:03.812Z,24.52
2023-05-05T11:45:03.850Z,24.54
2023-05-05T11:47:03.702Z,24.55
2023-05-05T11:49:03.915Z,24.52
2023-05-05T11:51:03.817Z,24.52
2023-05-05T11:53:03.884Z,24.57
2023-05-05T11:55:03.941Z,24.64
2023-05-05T11:57:03.842Z,24.65
2023-05-05T11:59:03.845Z,24.76
2023-05-05T12:01:03.765Z,25.91
2023-05-05T12:03:03.944Z,25.38
2023-05-05T12:05:03.876Z,25.43
2023-05-05T12:07:03.831Z,24.48
2023-05-05T12:09:03.832Z,23.95
2023-05-05T12:11:03.785Z,23.53
2023-05-05T12:13:03.959Z,24.08
2023-05-05T12:15:03.925Z,24.55
2023-05-05T12:17:03.867Z,24.55
2023-05-05T12:19:03.812Z,24.57
2023-05-05T12:21:03.903Z,24.66
2023-05-05T12:23:03.891Z,24.66
2023-05-05T12:25:03.903Z,24.80
2023-05-05T12:27:03.889Z,24.73
2023-05-05T12:29:03.966Z,24.66
2023-05-05T12:31:04.031Z,24.68
2023-05-05T12:33:03.913Z,24.76
2023-05-05T12:35:03.958Z,24.66
2023-05-05T12:37:03.785Z,26.46
2023-05-05T12:39:03.963Z,24.87
2023-05-05T12:41:03.942Z,24.90
2023-05-05T12:43:03.688Z,24.92
2023-05-05T12:45:03.890Z,24.96
2023-05-05T12:47:03.838Z,24.92
2023-05-05T12:49:03.859Z,24.79
2023-05-05T12:51:03.826Z,24.35
2023-05-05T12:53:03.963Z,23.91
2023-05-05T12:55:03.924Z,24.22
2023-05-05T12:57:03.939Z,25.94
2023-05-05T12:59:03.961Z,24.76
2023-05-05T13:01:04.043Z,24.86
2023-05-05T13:03:03.933Z,24.90
2023-05-05T13:05:03.966Z,24.76
2023-05-05T13:07:03.923Z,24.90
2023-05-05T13:09:03.899Z,24.87
2023-05-05T13:11:04.001Z,24.76
2023-05-05T13:13:03.848Z,24.90
2023-05-05T13:15:03.936Z,24.93
2023-05-05T13:17:04.033Z,24.94
2023-05-05T13:19:03.926Z,24.94
2023-05-05T13:21:03.954Z,24.98
2023-05-05T13:23:03.948Z,24.95
2023-05-05T13:25:03.957Z,24.97
2023-05-05T13:27:03.971Z,25.28
2023-05-05T13:29:03.931Z,24.66
2023-05-05T13:31:03.950Z,24.47
2023-05-05T13:33:04.042Z,25.13
2023-05-05T13:35:03.925Z,25.85
2023-05-05T13:37:03.928Z,24.67
2023-05-05T13:39:03.956Z,24.71
2023-05-05T13:41:04.071Z,24.55
2023-05-05T13:43:03.923Z,25.40
2023-05-05T13:45:03.984Z,24.71
2023-05-05T13:47:03.996Z,26.51
2023-05-05T13:49:03.975Z,24.66
2023-05-05T13:51:04.044Z,24.66
2023-05-05T13:53:03.970Z,24.68
2023-05-05T13:55:04.006Z,24.76
2023-05-05T13:57:03.842Z,24.72
2023-05-05T13:59:03.980Z,24.69
2023-05-05T14:01:04.038Z,24.72
2023-05-05T14:03:03.990Z,24.72
2023-05-05T14:05:03.979Z,24.66
2023-05-05T14:07:04.022Z,24.67
2023-05-05T14:09:03.979Z,24.67
2023-05-05T14:11:04.057Z,25.23
2023-05-05T14:13:04.055Z,25.89
2023-05-05T14:15:03.902Z,26.52
2023-05-05T14:17:03.979Z,26.49
2023-05-05T14:19:04.078Z,25.47
2023-05-05T14:21:04.111Z,24.66
2023-05-05T14:23:03.937Z,24.67
2023-05-05T14:25:04.045Z,24.66
2023-05-05T14:27:04.026Z,26.65
2023-05-05T14:29:04.011Z,24.64
2023-05-05T14:31:04.019Z,24.76
2023-05-05T14:33:04.004Z,24.71
2023-05-05T14:35:03.984Z,26.52
2023-05-05T14:37:04.031Z,26.53
2023-05-05T14:39:04.025Z,24.71
2023-05-05T14:41:04.002Z,26.68
2023-05-05T14:43:03.977Z,25.74
2023-05-05T14:45:04.060Z,24.69
2023-05-05T14:47:03.992Z,24.66
2023-05-05T14:49:03.986Z,24.67
2023-05-05T14:51:03.975Z,24.76
2023-05-05T14:53:03.949Z,26.52
2023-05-05T14:55:04.022Z,25.17
2023-05-05T14:57:04.084Z,26.43
2023-05-05T14:59:03.954Z,26.38
2023-05-05T15:01:04.081Z,26.22
2023-05-05T15:03:04.036Z,24.90
2023-05-05T15:05:04.010Z,24.75
2023-05-05T15:07:04.006Z,24.76
2023-05-05T15:09:04.029Z,24.85
2023-05-05T15:11:04.023Z,24.76
2023-05-05T15:13:04.024Z,24.73
2023-05-05T15:15:04.143Z,24.66
2023-05-05T15:17:04.063Z,24.67
2023-05-05T15:19:04.011Z,25.09
2023-05-05T15:21:04.032Z,25.09
2023-05-05T15:23:04.037Z,24.97
2023-05-05T15:25:04.038Z,24.76
2023-05-05T15:27:04.099Z,24.11
2023-05-05T15:29:04.039Z,23.91
2023-05-05T15:31:04.054Z,23.96
2023-05-05T15:33:04.012Z,23.89
2023-05-05T15:35:04.132Z,23.83
2023-05-05T15:37:04.047Z,23.30
2023-05-05T15:39:04.083Z,23.25
2023-05-05T15:41:04.080Z,23.24
2023-05-05T15:43:04.068Z,23.22
2023-05-05T15:45:04.062Z,23.25
2023-05-05T15:47:04.123Z,23.84
2023-05-05T15:49:04.082Z,24.09
2023-05-05T15:51:04.176Z,24.16
2023-05-05T15:53:04.032Z,24.37
2023-05-05T15:55:04.110Z,24.38
2023-05-05T15:57:04.128Z,24.46
2023-05-05T15:59:04.044Z,24.38
2023-05-05T16:01:04.101Z,24.43
2023-05-05T16:03:04.147Z,24.48
2023-05-05T16:05:04.112Z,24.57
2023-05-05T16:07:04.125Z,24.57
2023-05-05T16:09:04.153Z,24.54
2023-05-05T16:11:04.055Z,24.46
2023-05-05T16:13:04.088Z,24.51
2023-05-05T16:15:04.064Z,24.51
2023-05-05T16:17:04.201Z,23.81
2023-05-05T16:19:04.031Z,22.95
2023-05-05T16:21:04.062Z,22.91
2023-05-05T16:23:04.065Z,22.98
2023-05-05T16:25:04.225Z,22.85
2023-05-05T16:27:04.162Z,22.95
2023-05-05T16:29:04.060Z,23.27
2023-05-05T16:31:04.094Z,23.48
2023-05-05T16:33:04.209Z,23.49
2023-05-05T16:35:04.133Z,23.53
2023-05-05T16:37:04.177Z,23.45
2023-05-05T16:39:04.200Z,23.53
2023-05-05T16:41:04.217Z,23.50
2023-05-05T16:43:04.083Z,23.52
2023-05-05T16:45:04.126Z,23.44
2023-05-05T16:47:04.126Z,23.44
2023-05-05T16:49:04.171Z,23.53
2023-05-05T16:51:04.083Z,23.42
2023-05-05T16:53:04.123Z,23.44
2023-05-05T16:55:04.145Z,23.19
2023-05-05T16:57:04.201Z,23.37
2023-05-05T16:59:04.128Z,23.38
2023-05-05T17:01:04.139Z,23.34
2023-05-05T17:03:04.167Z,22.94
2023-05-05T17:05:04.088Z,22.91
2023-05-05T17:07:04.124Z,22.78
2023-05-05T17:09:04.221Z,22.74
2023-05-05T17:11:04.250Z,22.74
2023-05-05T17:13:04.286Z,22.98
2023-05-05T17:15:04.277Z,22.90
2023-05-05T17:17:04.156Z,22.88
2023-05-05T17:19:04.049Z,23.01
2023-05-05T17:21:04.103Z,23.02
2023-05-05T17:23:04.136Z,22.94
2023-05-05T17:25:04.083Z,23.15
2023-05-05T17:27:04.165Z,23.34
2023-05-05T17:29:04.257Z,23.33
2023-05-05T17:31:04.146Z,23.20
2023-05-05T17:33:04.322Z,23.18
2023-05-05T17:35:04.116Z,23.25
2023-05-05T17:37:04.169Z,23.25
2023-05-05T17:39:04.192Z,23.19
2023-05-05T17:41:04.233Z,23.24
2023-05-05T17:43:04.230Z,23.20
2023-05-05T17:45:04.189Z,22.78
2023-05-05T17:47:04.269Z,22.78
2023-05-05T17:49:04.247Z,22.84
2023-05-05T17:51:04.221Z,22.14
2023-05-05T17:53:04.226Z,22.67
2023-05-05T17:55:04.114Z,23.12
2023-05-05T17:57:04.281Z,23.11
2023-05-05T17:59:04.188Z,23.01
2023-05-05T18:01:04.231Z,23.53
2023-05-05T18:03:04.230Z,23.59
2023-05-05T18:05:04.143Z,23.69
2023-05-05T18:07:04.162Z,23.75
2023-05-05T18:09:04.203Z,23.62
2023-05-05T18:11:04.265Z,23.74
2023-05-05T18:13:04.202Z,23.71
2023-05-05T18:15:04.247Z,23.73
2023-05-05T18:17:04.270Z,23.68
2023-05-05T18:19:04.264Z,23.66
2023-05-05T18:21:04.196Z,23.72
2023-05-05T18:23:04.281Z,23.67
2023-05-05T18:25:05.911Z,23.58
2023-05-05T18:27:04.205Z,23.68
2023-05-05T18:29:04.225Z,23.63
2023-05-05T18:31:04.273Z,23.68
2023-05-05T18:33:04.260Z,23.71
2023-05-05T18:35:04.307Z,23.72
2023-05-05T18:37:04.224Z,23.63
2023-05-05T18:39:04.265Z,23.65
2023-05-05T18:41:04.282Z,23.65
2023-05-05T18:43:04.230Z,23.66
2023-05-05T18:45:04.327Z,23.63
2023-05-05T18:47:04.305Z,23.65
2023-05-05T18:49:04.477Z,23.62
2023-05-05T18:51:04.201Z,23.73
2023-05-05T18:53:04.188Z,23.61
2023-05-05T18:55:04.273Z,23.65
2023-05-05T18:57:04.353Z,23.36
2023-05-05T18:59:04.292Z,23.59
2023-05-05T19:01:04.380Z,23.55
2023-05-05T19:03:04.304Z,23.63
2023-05-05T19:05:04.570Z,23.66
2023-05-05T19:07:04.274Z,23.73
2023-05-05T19:09:04.401Z,24.35
2023-05-05T19:11:04.261Z,25.50
2023-05-05T19:13:04.348Z,25.97
2023-05-05T19:15:04.319Z,26.08
2023-05-05T19:17:04.368Z,26.34
2023-05-05T19:19:04.400Z,26.50
2023-05-05T19:21:04.301Z,26.81
2023-05-05T19:23:04.212Z,26.98
2023-05-05T19:25:04.344Z,27.00
2023-05-05T19:27:04.464Z,27.03
2023-05-05T19:29:04.327Z,27.02
2023-05-05T19:31:04.318Z,26.96
2023-05-05T19:33:04.436Z,27.07
2023-05-05T19:35:04.400Z,27.05
2023-05-05T19:37:04.269Z,27.18
2023-05-05T19:39:04.420Z,27.08
2023-05-05T19:41:04.224Z,26.99
2023-05-05T19:43:04.290Z,26.96
2023-05-05T19:45:04.367Z,27.07
2023-05-05T19:47:04.292Z,27.12
2023-05-05T19:49:04.311Z,27.10
2023-05-05T19:51:04.224Z,26.81
2023-05-05T19:53:04.329Z,27.13
2023-05-05T19:55:04.507Z,27.09
2023-05-05T19:57:04.451Z,27.10
2023-05-05T19:59:04.353Z,27.09
2023-05-05T20:01:04.457Z,27.16
2023-05-05T20:03:04.627Z,27.19
2023-05-05T20:05:04.326Z,27.09
2023-05-05T20:07:04.430Z,27.13
2023-05-05T20:09:04.380Z,27.16
2023-05-05T20:11:04.362Z,25.52
2023-05-05T20:13:04.397Z,25.52
2023-05-05T20:15:04.439Z,25.49
2023-05-05T20:17:04.398Z,25.50
2023-05-05T20:19:04.502Z,25.60
2023-05-05T20:21:04.276Z,25.52
2023-05-05T20:23:04.383Z,25.52
2023-05-05T20:25:04.434Z,25.51
2023-05-05T20:27:04.509Z,25.33
2023-05-05T20:29:04.500Z,25.50
2023-05-05T20:31:04.456Z,25.52
2023-05-05T20:33:04.355Z,25.53
2023-05-05T20:35:04.419Z,25.49
2023-05-05T20:37:04.579Z,25.52
2023-05-05T20:39:04.425Z,25.49
2023-05-05T20:41:04.356Z,25.47
2023-05-05T20:43:04.343Z,25.52
2023-05-05T20:45:04.484Z,25.51
2023-05-05T20:47:04.500Z,25.52
2023-05-05T20:49:04.454Z,25.53
2023-05-05T20:51:04.432Z,25.60
2023-05-05T20:53:04.516Z,25.56
2023-05-05T20:55:04.413Z,25.53
2023-05-05T20:57:04.367Z,25.58
2023-05-05T20:59:04.304Z,25.65
2023-05-05T21:01:04.485Z,25.65
2023-05-05T21:03:04.526Z,25.52
2023-05-05T21:05:04.484Z,25.57
2023-05-05T21:07:04.418Z,25.52
2023-05-05T21:09:04.332Z,25.53
2023-05-05T21:11:04.469Z,25.52
2023-05-05T21:13:04.472Z,25.52
2023-05-05T21:15:04.420Z,25.53
2023-05-05T21:17:04.461Z,25.57
2023-05-05T21:19:04.399Z,25.52
2023-05-05T21:21:04.420Z,25.56
2023-05-05T21:23:04.344Z,25.52
2023-05-05T21:25:04.385Z,25.64
2023-05-05T21:27:04.389Z,25.54
2023-05-05T21:29:04.379Z,25.52
2023-05-05T21:31:21.361Z,25.53
2023-05-05T21:33:04.405Z,25.52
2023-05-05T21:35:04.413Z,25.56
2023-05-05T21:37:04.428Z,25.53
2023-05-05T21:39:04.438Z,25.63
2023-05-05T21:41:04.483Z,25.56
2023-05-05T21:43:04.408Z,25.57
2023-05-05T21:45:04.444Z,25.56
2023-05-05T21:47:04.467Z,25.54
2023-05-05T21:49:04.384Z,25.56
2023-05-05T21:51:04.436Z,25.58
2023-05-05T21:53:04.450Z,25.65
2023-05-05T21:55:04.498Z,25.52
2023-05-05T21:57:04.385Z,25.60
2023-05-05T21:59:04.502Z,25.57
2023-05-05T22:01:04.464Z,25.57
2023-05-05T22:03:04.554Z,25.56
2023-05-05T22:05:04.479Z,25.52
2023-05-05T22:07:04.430Z,25.60
2023-05-05T22:09:04.465Z,25.55
2023-05-05T22:11:04.432Z,25.56
2023-05-05T22:13:04.572Z,25.54
2023-05-05T22:15:04.516Z,25.54
2023-05-05T22:17:04.389Z,25.57
2023-05-05T22:19:04.414Z,25.58
2023-05-05T22:21:04.545Z,25.65
2023-05-05T22:23:04.500Z,25.53
2023-05-05T22:25:04.558Z,25.60
2023-05-05T22:27:04.545Z,25.57
2023-05-05T22:29:04.527Z,25.53
2023-05-05T22:31:04.613Z,25.60
2023-05-05T22:33:04.546Z,25.61
2023-05-05T22:35:04.661Z,25.56
2023-05-05T22:37:04.544Z,25.65
2023-05-05T22:39:04.495Z,25.57
2023-05-05T22:41:04.529Z,25.61
2023-05-05T22:43:04.417Z,25.54
2023-05-05T22:45:04.581Z,25.64
2023-05-05T22:47:04.554Z,25.58
2023-05-05T22:49:04.619Z,25.61
2023-05-05T22:51:04.499Z,25.58
2023-05-05T22:53:04.506Z,25.63
2023-05-05T22:55:04.428Z,25.57
2023-05-05T22:57:04.583Z,25.60
2023-05-05T22:59:04.528Z,25.53
2023-05-05T23:01:04.563Z,25.65
2023-05-05T23:03:04.590Z,25.58
2023-05-05T23:05:04.503Z,25.56
2023-05-05T23:07:04.513Z,25.70
2023-05-05T23:09:04.548Z,25.54
2023-05-05T23:11:04.554Z,25.56
2023-05-05T23:13:04.667Z,25.52
2023-05-05T23:15:04.498Z,25.53
2023-05-05T23:17:04.607Z,25.57
2023-05-05T23:19:04.549Z,25.56
2023-05-05T23:21:04.599Z,25.60
2023-05-05T23:23:04.578Z,25.52
2023-05-05T23:25:04.599Z,25.54
2023-05-05T23:27:04.558Z,25.52
2023-05-05T23:29:04.515Z,25.60
2023-05-05T23:31:04.621Z,25.53
2023-05-05T23:33:04.589Z,25.55
2023-05-05T23:35:04.529Z,25.54
2023-05-05T23:37:06.183Z,25.61
2023-05-05T23:39:04.467Z,25.54
2023-05-05T23:41:04.595Z,25.50
2023-05-05T23:43:04.604Z,25.52
2023-05-05T23:45:04.585Z,25.56
2023-05-05T23:47:04.645Z,25.58
2023-05-05T23:49:04.611Z,25.53
2023-05-05T23:51:04.549Z,25.60
2023-05-05T23:53:04.602Z,25.53
2023-05-05T23:55:04.584Z,25.52
2023-05-05T23:57:04.585Z,25.60
2023-05-05T23:59:04.597Z,25.65
